Time;durP1;ratioP1;P1;durP2;ratioP2;P2;SDS_P1;SDS_P2;PMS_P1;PMS_P2;Temp;Humidity;BMP_temperature;BMP_pressure;BME280_temperature;BME280_humidity;BME280_pressure;Samples;Min_cycle;Max_cycle;Signal;HPM_P1;HPM_P2
2023/06/04 00:00:11;;;;;;;12.30;9.10;;;;;;;18.36;100.00;94996.25;5051765;28;20505;-81
2023/06/04 00:02:38;;;;;;;10.87;8.10;;;;;;;18.40;100.00;94999.41;5051958;28;20452;-82
2023/06/04 00:05:06;;;;;;;11.60;7.87;;;;;;;18.39;100.00;94995.09;5051801;28;20498;-81
2023/06/04 00:07:32;;;;;;;10.77;9.13;;;;;;;18.37;100.00;94997.09;5051958;28;20525;-81
2023/06/04 00:09:59;;;;;;;9.30;8.37;;;;;;;18.38;100.00;94999.56;5016796;28;20989;-81
2023/06/04 00:12:27;;;;;;;9.60;8.60;;;;;;;18.36;100.00;94996.25;5051589;28;20482;-81
2023/06/04 00:14:54;;;;;;;10.17;9.03;;;;;;;18.39;100.00;95005.72;5051794;28;20451;-81
2023/06/04 00:17:21;;;;;;;11.30;9.97;;;;;;;18.33;100.00;95012.56;5051744;28;20494;-81
2023/06/04 00:19:47;;;;;;;13.20;9.77;;;;;;;18.25;100.00;95004.63;5051348;28;20513;-81
2023/06/04 00:22:15;;;;;;;11.57;10.37;;;;;;;18.19;100.00;95000.00;5051942;28;20506;-81
2023/06/04 00:24:41;;;;;;;15.40;10.63;;;;;;;18.21;100.00;95006.81;5051791;28;20448;-81
2023/06/04 00:27:09;;;;;;;16.10;12.30;;;;;;;17.95;100.00;95004.44;5051860;28;20504;-81
2023/06/04 00:29:38;;;;;;;18.80;12.03;;;;;;;17.89;100.00;94998.97;5051404;28;20452;-81
2023/06/04 00:32:05;;;;;;;18.13;13.90;;;;;;;17.77;100.00;94993.22;5051612;28;20439;-81
2023/06/04 00:34:32;;;;;;;18.33;11.97;;;;;;;17.79;100.00;94999.19;5051727;28;20492;-81
2023/06/04 00:37:01;;;;;;;20.00;11.50;;;;;;;17.84;100.00;94990.69;5051633;28;20464;-81
2023/06/04 00:39:29;;;;;;;14.60;12.90;;;;;;;17.90;100.00;94995.31;5052927;28;20504;-81
2023/06/04 00:41:55;;;;;;;13.80;12.30;;;;;;;17.98;100.00;95000.63;5055236;28;20495;-81
2023/06/04 00:44:23;;;;;;;13.17;10.80;;;;;;;17.87;100.00;94990.34;5055630;28;20483;-81
2023/06/04 00:46:53;;;;;;;17.27;12.10;;;;;;;17.90;100.00;94992.66;5055341;28;20474;-81
2023/06/04 00:49:20;;;;;;;17.63;12.80;;;;;;;17.88;100.00;95006.13;5055314;28;21008;-81
2023/06/04 00:51:47;;;;;;;14.87;11.93;;;;;;;17.91;100.00;94992.50;5055256;28;20510;-81
2023/06/04 00:54:14;;;;;;;17.83;13.70;;;;;;;17.94;100.00;94991.34;5055308;28;20500;-81
2023/06/04 00:56:41;;;;;;;13.20;11.70;;;;;;;17.97;100.00;94993.66;5054905;28;20439;-81
2023/06/04 00:59:09;;;;;;;16.60;12.20;;;;;;;17.90;100.00;94993.50;5055233;28;20478;-81
2023/06/04 01:01:45;;;;;;;15.40;13.20;;;;;;;17.90;100.00;94992.66;5054706;28;20930;-81
2023/06/04 01:04:17;;;;;;;17.10;12.90;;;;;;;17.93;100.00;94998.47;5054943;28;20506;-81
2023/06/04 01:06:45;;;;;;;16.03;12.20;;;;;;;17.97;100.00;94996.31;5055007;28;20531;-81
2023/06/04 01:09:12;;;;;;;17.33;12.10;;;;;;;17.98;100.00;94997.97;5055165;28;20513;-81
2023/06/04 01:11:40;;;;;;;14.57;11.57;;;;;;;18.03;100.00;94995.59;5054655;28;20503;-81
2023/06/04 01:14:09;;;;;;;16.53;12.10;;;;;;;18.08;100.00;94993.25;5054665;28;20488;-81
2023/06/04 01:16:40;;;;;;;12.77;11.40;;;;;;;18.10;100.00;94993.09;5054477;28;20528;-81
2023/06/04 01:19:22;;;;;;;16.93;11.10;;;;;;;18.16;100.00;94993.22;5054932;28;20439;-81
2023/06/04 01:21:53;;;;;;;13.00;11.67;;;;;;;18.18;100.00;94993.03;5054534;28;20439;-81
2023/06/04 01:24:23;;;;;;;13.27;11.87;;;;;;;18.20;100.00;94993.69;5054401;28;20474;-81
2023/06/04 01:26:52;;;;;;;13.60;10.60;;;;;;;18.20;100.00;94996.34;5054729;28;20533;-82
2023/06/04 01:29:19;;;;;;;15.73;11.93;;;;;;;18.19;100.00;94998.16;5054619;28;20521;-81
2023/06/04 01:31:46;;;;;;;19.37;12.27;;;;;;;18.05;100.00;94998.91;5054487;28;20993;-81
2023/06/04 01:34:14;;;;;;;13.90;12.37;;;;;;;18.09;100.00;95005.53;5054395;28;20894;-81
2023/06/04 01:36:41;;;;;;;18.60;11.80;;;;;;;18.09;100.00;95007.38;5054425;28;20459;-81
2023/06/04 01:39:07;;;;;;;15.17;11.50;;;;;;;18.04;100.00;95007.88;5054519;28;20449;-81
2023/06/04 01:41:34;;;;;;;15.10;11.47;;;;;;;17.98;100.00;95007.75;5054495;28;20432;-81
2023/06/04 01:44:01;;;;;;;10.57;9.40;;;;;;;17.80;100.00;95013.28;5053876;28;20569;-82
2023/06/04 01:46:28;;;;;;;15.27;10.70;;;;;;;17.75;100.00;95010.31;5053990;28;20440;-81
2023/06/04 01:48:56;;;;;;;13.50;12.07;;;;;;;17.80;100.00;95013.28;5054177;28;20448;-81
2023/06/04 01:51:24;;;;;;;10.23;8.93;;;;;;;17.72;100.00;95008.84;5053638;28;20510;-81
2023/06/04 01:53:51;;;;;;;10.63;9.27;;;;;;;17.72;100.00;95013.31;5035030;28;20490;-81
2023/06/04 01:56:17;;;;;;;17.70;8.87;;;;;;;17.72;100.00;95016.81;5054121;28;20528;-81
2023/06/04 01:58:44;;;;;;;9.63;7.50;;;;;;;17.60;100.00;95021.59;5054326;28;20618;-81
2023/06/04 02:01:11;;;;;;;9.20;6.70;;;;;;;17.54;100.00;95029.41;5054360;28;20442;-81
2023/06/04 02:03:40;;;;;;;9.63;7.10;;;;;;;17.47;100.00;95017.81;5053946;28;20438;-81
2023/06/04 02:06:07;;;;;;;10.60;7.60;;;;;;;17.48;100.00;95019.47;5053751;28;20483;-81
2023/06/04 02:08:35;;;;;;;7.80;5.77;;;;;;;17.38;100.00;95030.28;5053725;28;20942;-81
2023/06/04 02:11:02;;;;;;;6.13;5.53;;;;;;;17.22;100.00;95023.16;5035152;28;20455;-81
2023/06/04 02:13:30;;;;;;;6.27;5.67;;;;;;;17.27;100.00;95026.13;5053820;28;20477;-81
2023/06/04 02:15:56;;;;;;;5.63;5.20;;;;;;;17.26;100.00;95028.97;5034850;28;20434;-81
2023/06/04 02:18:24;;;;;;;5.70;5.20;;;;;;;17.27;100.00;95025.31;5053719;28;20459;-81
2023/06/04 02:20:52;;;;;;;6.63;5.00;;;;;;;17.12;100.00;95024.34;5053519;28;20447;-81
2023/06/04 02:23:20;;;;;;;4.77;4.37;;;;;;;17.13;100.00;95029.47;5053646;28;20461;-81
2023/06/04 02:25:49;;;;;;;5.43;5.00;;;;;;;17.20;100.00;95035.75;5053159;28;20449;-82
2023/06/04 02:28:16;;;;;;;5.03;4.53;;;;;;;17.19;100.00;95035.94;5053447;28;20941;-81
2023/06/04 02:30:43;;;;;;;4.70;4.30;;;;;;;17.26;100.00;95036.91;5053276;28;20515;-81
2023/06/04 02:33:10;;;;;;;5.33;4.93;;;;;;;17.29;100.00;95036.56;5053440;28;20535;-81
2023/06/04 02:35:37;;;;;;;13.73;5.40;;;;;;;17.34;100.00;95048.34;5053283;28;20481;-81
2023/06/04 02:38:04;;;;;;;5.83;5.20;;;;;;;17.39;100.00;95047.84;5053163;28;20452;-81
2023/06/04 02:40:31;;;;;;;6.00;4.87;;;;;;;17.43;100.00;95053.66;5017792;28;20434;-81
2023/06/04 02:43:00;;;;;;;6.90;4.93;;;;;;;17.44;100.00;95052.66;5053116;28;20453;-81
2023/06/04 02:45:28;;;;;;;6.27;5.67;;;;;;;17.48;100.00;95056.63;5053171;28;20508;-81
2023/06/04 02:47:54;;;;;;;8.80;4.93;;;;;;;17.49;100.00;95058.28;5053021;28;20454;-81
2023/06/04 02:50:21;;;;;;;6.20;4.20;;;;;;;17.53;100.00;95054.28;5052860;28;20440;-81
2023/06/04 02:52:48;;;;;;;7.33;4.77;;;;;;;17.56;100.00;95059.25;5052683;28;20470;-82
2023/06/04 02:55:15;;;;;;;4.87;4.40;;;;;;;17.59;100.00;95065.06;5052577;28;20487;-81
2023/06/04 02:57:43;;;;;;;5.03;4.50;;;;;;;17.61;100.00;95056.91;5052845;28;20806;-81
2023/06/04 03:00:13;;;;;;;6.97;4.93;;;;;;;17.67;100.00;95060.75;5052857;28;20488;-81
2023/06/04 03:02:42;;;;;;;4.73;4.33;;;;;;;17.67;100.00;95064.25;5052083;28;20456;-81
2023/06/04 03:05:12;;;;;;;7.10;4.27;;;;;;;17.74;100.00;95070.53;5052898;28;20502;-81
2023/06/04 03:07:40;;;;;;;6.80;5.43;;;;;;;17.81;100.00;95071.50;5052567;28;20447;-81
2023/06/04 03:10:08;;;;;;;7.53;4.80;;;;;;;17.87;100.00;95070.81;5052501;28;20447;-81
2023/06/04 03:12:35;;;;;;;7.97;5.50;;;;;;;17.93;100.00;95067.50;5052507;28;20445;-81
2023/06/04 03:15:02;;;;;;;6.27;5.30;;;;;;;17.98;100.00;95064.34;5052232;28;20491;-81
2023/06/04 03:17:31;;;;;;;5.80;5.27;;;;;;;17.98;100.00;95066.16;5052559;28;20451;-81
2023/06/04 03:19:58;;;;;;;10.10;5.43;;;;;;;17.98;100.00;95071.47;5052463;28;20479;-81
2023/06/04 03:22:25;;;;;;;12.03;5.20;;;;;;;17.97;100.00;95080.44;5052797;28;20499;-81
2023/06/04 03:24:52;;;;;;;10.83;4.90;;;;;;;17.96;100.00;95079.63;5052298;28;20805;-81
2023/06/04 03:27:20;;;;;;;8.27;5.10;;;;;;;18.02;100.00;95076.28;5051554;28;20435;-81
2023/06/04 03:29:47;;;;;;;6.30;5.70;;;;;;;18.02;100.00;95072.78;5052469;28;20241;-82
2023/06/04 03:32:15;;;;;;;7.70;5.23;;;;;;;17.99;100.00;95081.94;5017147;28;20879;-81
2023/06/04 03:34:44;;;;;;;7.00;5.40;;;;;;;17.96;100.00;95095.56;5052310;28;21204;-82
2023/06/04 03:37:10;;;;;;;5.33;4.87;;;;;;;17.97;100.00;95096.38;5052448;28;20455;-81
2023/06/04 03:39:37;;;;;;;10.00;5.03;;;;;;;17.95;100.00;95091.25;5016905;28;20941;-81
2023/06/04 03:42:04;;;;;;;6.27;5.50;;;;;;;17.95;100.00;95094.72;5051872;28;20953;-81
2023/06/04 03:44:31;;;;;;;5.73;5.10;;;;;;;17.87;100.00;95091.25;5052393;28;20478;-81
2023/06/04 03:46:58;;;;;;;10.07;5.97;;;;;;;17.90;100.00;95096.22;5052025;28;20455;-81
2023/06/04 03:49:25;;;;;;;7.27;5.63;;;;;;;17.88;100.00;95093.72;5052013;28;20493;-81
2023/06/04 03:51:53;;;;;;;5.73;5.23;;;;;;;17.92;100.00;95102.16;5052364;28;20444;-81
2023/06/04 03:54:20;;;;;;;5.07;4.57;;;;;;;17.92;100.00;95097.69;5051871;28;20493;-81
2023/06/04 03:56:47;;;;;;;5.77;5.27;;;;;;;17.89;100.00;95106.00;5051989;28;20873;-81
2023/06/04 03:59:15;;;;;;;5.10;4.70;;;;;;;17.81;100.00;95095.41;5051951;28;20454;-81
2023/06/04 04:01:43;;;;;;;5.40;4.90;;;;;;;17.85;100.00;95106.50;5051885;28;20447;-81
2023/06/04 04:04:10;;;;;;;5.97;5.47;;;;;;;17.82;100.00;95098.88;5016938;28;20453;-81
2023/06/04 04:06:36;;;;;;;6.00;5.20;;;;;;;17.86;100.00;95114.31;5051889;28;20465;-81
2023/06/04 04:09:06;;;;;;;5.70;5.20;;;;;;;17.88;100.00;95116.78;5051624;28;20452;-81
2023/06/04 04:11:32;;;;;;;6.00;5.40;;;;;;;17.85;100.00;95112.66;5051932;28;20444;-81
2023/06/04 04:14:00;;;;;;;5.83;5.33;;;;;;;17.82;100.00;95115.66;5054207;28;20490;-81
2023/06/04 04:16:27;;;;;;;5.43;5.03;;;;;;;17.75;100.00;95109.34;5056208;28;20483;-81
2023/06/04 04:18:54;;;;;;;6.13;5.60;;;;;;;17.79;100.00;95120.47;5056151;28;20451;-81
2023/06/04 04:21:21;;;;;;;7.17;6.00;;;;;;;17.73;100.00;95111.34;5055526;28;20927;-81
2023/06/04 04:23:48;;;;;;;7.00;5.60;;;;;;;17.77;100.00;95117.97;5055664;28;20998;-81
2023/06/04 04:26:17;;;;;;;9.83;5.80;;;;;;;17.64;100.00;95113.16;5036934;28;20443;-81
2023/06/04 04:28:44;;;;;;;7.47;5.27;;;;;;;17.62;100.00;95114.31;5055525;28;20958;-81
2023/06/04 04:31:11;;;;;;;8.07;6.53;;;;;;;17.62;100.00;95123.09;5056259;28;20781;-81
2023/06/04 04:33:39;;;;;;;6.50;5.83;;;;;;;17.54;100.00;95122.28;5055356;28;20456;-82
2023/06/04 04:36:08;;;;;;;5.40;4.90;;;;;;;17.44;100.00;95126.94;5036968;28;20480;-81
2023/06/04 04:38:35;;;;;;;5.40;4.90;;;;;;;17.37;100.00;95123.31;5055738;28;20448;-81
2023/06/04 04:41:02;;;;;;;6.10;5.50;;;;;;;17.52;100.00;95118.97;5055248;28;20452;-81
2023/06/04 04:43:34;;;;;;;5.10;4.70;;;;;;;17.59;100.00;95120.78;5055360;28;20478;-81
2023/06/04 04:46:01;;;;;;;7.13;5.47;;;;;;;17.68;100.00;95124.31;5055271;28;20943;-81
2023/06/04 04:48:28;;;;;;;8.57;4.87;;;;;;;17.77;100.00;95117.97;5019912;28;20942;-81
2023/06/04 04:50:55;;;;;;;7.57;5.77;;;;;;;17.88;100.00;95122.09;5055312;28;20441;-81
2023/06/04 04:53:22;;;;;;;5.83;5.33;;;;;;;17.91;100.00;95114.63;5036383;28;20445;-81
2023/06/04 04:55:48;;;;;;;8.17;5.80;;;;;;;17.82;100.00;95120.13;5019771;28;20539;-81
2023/06/04 04:58:16;;;;;;;9.37;5.23;;;;;;;17.64;100.00;95126.44;5055167;28;20443;-81
2023/06/04 05:00:45;;;;;;;7.33;6.60;;;;;;;17.67;100.00;95127.97;5055404;28;20445;-81
2023/06/04 05:03:12;;;;;;;6.53;5.90;;;;;;;17.82;100.00;95128.91;5036430;28;20453;-81
2023/06/04 05:05:39;;;;;;;6.80;6.07;;;;;;;17.90;100.00;95125.41;5054993;28;20456;-81
2023/06/04 05:08:05;;;;;;;6.47;5.83;;;;;;;17.75;100.00;95130.59;5055091;28;20502;-81
2023/06/04 05:10:32;;;;;;;13.30;6.57;;;;;;;17.92;100.00;95128.72;5054972;28;20445;-81
2023/06/04 05:13:00;;;;;;;6.30;5.80;;;;;;;18.00;100.00;95119.94;5054731;28;20968;-81
2023/06/04 05:15:27;;;;;;;6.43;5.93;;;;;;;17.86;100.00;95132.06;5054578;28;20490;-81
2023/06/04 05:17:56;;;;;;;8.97;6.63;;;;;;;17.95;100.00;95139.88;5054596;28;20443;-81
2023/06/04 05:20:23;;;;;;;8.10;7.30;;;;;;;17.78;100.00;95140.03;5054915;28;20453;-81
2023/06/04 05:22:50;;;;;;;7.47;6.47;;;;;;;17.65;100.00;95136.06;5054633;28;20453;-81
2023/06/04 05:25:17;;;;;;;7.27;6.57;;;;;;;17.52;100.00;95145.50;5053741;28;20461;-81
2023/06/04 05:27:45;;;;;;;10.53;7.73;;;;;;;17.50;100.00;95142.19;5055001;28;20446;-81
2023/06/04 05:30:13;;;;;;;9.83;7.13;;;;;;;17.42;100.00;95145.69;5054569;28;20486;-81
2023/06/04 05:32:40;;;;;;;7.73;7.13;;;;;;;17.43;100.00;95147.34;5019620;28;20465;-81
2023/06/04 05:35:10;;;;;;;9.93;8.13;;;;;;;17.39;100.00;95138.06;5054181;28;20491;-81
2023/06/04 05:37:40;;;;;;;10.20;8.13;;;;;;;17.34;100.00;95135.88;5054349;28;20450;-81
2023/06/04 05:40:09;;;;;;;11.07;9.23;;;;;;;17.31;100.00;95145.97;5054316;28;20451;-81
2023/06/04 05:42:36;;;;;;;15.20;8.47;;;;;;;17.25;100.00;95146.66;5003276;28;20449;-81
2023/06/04 05:45:03;;;;;;;10.17;8.87;;;;;;;17.39;100.00;95155.78;5054318;28;20490;-81
2023/06/04 05:47:30;;;;;;;10.17;8.97;;;;;;;17.51;100.00;95157.13;5054231;28;20844;-81
2023/06/04 05:49:57;;;;;;;9.80;8.97;;;;;;;17.55;100.00;95161.09;5018596;28;20471;-81
2023/06/04 05:52:25;;;;;;;10.93;7.23;;;;;;;17.68;100.00;95158.81;5054290;28;20455;-81
2023/06/04 05:54:52;;;;;;;12.47;9.17;;;;;;;17.76;100.00;95163.28;5053763;28;20582;-81
2023/06/04 05:57:19;;;;;;;8.83;7.07;;;;;;;17.41;100.00;95161.75;5018804;28;20892;-81
2023/06/04 05:59:45;;;;;;;9.33;8.30;;;;;;;17.40;100.00;95163.59;5018609;28;20436;-82
2023/06/04 06:02:13;;;;;;;9.50;8.50;;;;;;;17.44;100.00;95172.03;5054094;28;20537;-82
2023/06/04 06:04:40;;;;;;;9.07;8.00;;;;;;;17.46;100.00;95176.19;5053777;28;20450;-81
2023/06/04 06:07:07;;;;;;;9.30;8.23;;;;;;;17.39;100.00;95188.47;5053877;28;20447;-81
2023/06/04 06:09:36;;;;;;;10.13;8.60;;;;;;;17.31;100.00;95175.16;5053582;28;20475;-81
2023/06/04 06:12:03;;;;;;;11.60;9.13;;;;;;;17.32;100.00;95182.13;5053598;28;20531;-81
2023/06/04 06:14:30;;;;;;;9.63;8.63;;;;;;;17.29;100.00;95185.94;5053773;28;20999;-81
2023/06/04 06:16:57;;;;;;;10.17;8.60;;;;;;;17.46;100.00;95192.09;5034878;28;20874;-81
2023/06/04 06:19:23;;;;;;;13.23;9.10;;;;;;;17.39;100.00;95184.97;5053465;28;20451;-81
2023/06/04 06:21:50;;;;;;;12.90;9.83;;;;;;;17.34;100.00;95185.44;5053773;28;20447;-81
2023/06/04 06:24:17;;;;;;;8.63;7.83;;;;;;;17.45;100.00;95189.63;5018255;28;20506;-81
2023/06/04 06:26:45;;;;;;;10.63;8.30;;;;;;;17.48;100.00;95186.63;5034918;28;20450;-81
2023/06/04 06:29:12;;;;;;;9.80;8.23;;;;;;;17.43;100.00;95184.47;5053250;28;20492;-81
2023/06/04 06:31:38;;;;;;;9.00;8.20;;;;;;;17.43;100.00;95189.78;5053501;28;20449;-81
2023/06/04 06:34:05;;;;;;;10.67;8.50;;;;;;;17.51;100.00;95186.31;5053179;28;20447;-81
2023/06/04 06:36:32;;;;;;;9.43;7.37;;;;;;;17.45;100.00;95190.44;5053213;28;20478;-81
2023/06/04 06:38:59;;;;;;;11.03;8.63;;;;;;;17.46;100.00;95185.97;5053220;28;20447;-81
2023/06/04 06:41:26;;;;;;;10.87;7.50;;;;;;;17.46;100.00;95191.28;5034445;28;20455;-81
2023/06/04 06:43:54;;;;;;;9.83;7.40;;;;;;;17.43;100.00;95187.13;5017879;28;20572;-81
2023/06/04 06:46:23;;;;;;;9.27;7.70;;;;;;;17.49;100.00;95190.94;5053201;28;20446;-81
2023/06/04 06:48:50;;;;;;;15.80;9.00;;;;;;;17.49;100.00;95188.28;5052964;28;20457;-81
2023/06/04 06:51:17;;;;;;;10.30;7.70;;;;;;;17.73;100.00;95193.63;5053383;28;20430;-81
2023/06/04 06:53:44;;;;;;;9.20;8.30;;;;;;;17.56;100.00;95195.41;5053250;28;20458;-81
2023/06/04 06:56:11;;;;;;;7.80;7.00;;;;;;;17.52;100.00;95194.09;5052769;28;20513;-81
2023/06/04 06:58:38;;;;;;;9.30;7.87;;;;;;;17.63;100.00;95199.06;5052723;28;20446;-81
2023/06/04 07:01:06;;;;;;;7.63;6.57;;;;;;;17.63;100.00;95200.88;5052935;28;20481;-81
2023/06/04 07:03:33;;;;;;;9.63;7.63;;;;;;;17.67;100.00;95202.28;5052647;28;20473;-81
2023/06/04 07:06:01;;;;;;;8.37;7.70;;;;;;;17.73;100.00;95196.28;5052622;28;20497;-81
2023/06/04 07:08:28;;;;;;;10.27;7.47;;;;;;;17.85;100.00;95210.88;5052651;28;20450;-80
2023/06/04 07:10:55;;;;;;;8.50;7.80;;;;;;;17.97;100.00;95205.25;5034133;28;20777;-80
2023/06/04 07:13:22;;;;;;;9.30;8.37;;;;;;;17.96;100.00;95207.06;5052754;28;20962;-80
2023/06/04 07:15:49;;;;;;;9.70;8.20;;;;;;;18.02;100.00;95206.41;5052458;28;21005;-80
2023/06/04 07:18:17;;;;;;;12.63;9.53;;;;;;;17.97;100.00;95218.53;5052532;28;20451;-80
2023/06/04 07:20:44;;;;;;;10.87;8.70;;;;;;;18.04;100.00;95216.84;5017476;28;20446;-80
2023/06/04 07:23:11;;;;;;;12.00;8.77;;;;;;;18.14;100.00;95220.97;5033503;28;20444;-81
2023/06/04 07:25:37;;;;;;;10.60;8.30;;;;;;;18.10;100.00;95224.97;5016851;28;20933;-81
2023/06/04 07:28:04;;;;;;;12.90;9.43;;;;;;;18.08;100.00;95224.31;5052485;28;20493;-80
2023/06/04 07:30:32;;;;;;;8.47;7.67;;;;;;;18.10;100.00;95214.34;5052598;28;20534;-81
2023/06/04 07:32:59;;;;;;;9.77;8.43;;;;;;;18.37;100.00;95223.75;5052204;28;20545;-81
2023/06/04 07:35:27;;;;;;;10.10;8.47;;;;;;;18.37;100.00;95225.59;5052264;28;20487;-82
2023/06/04 07:37:54;;;;;;;10.43;8.30;;;;;;;18.46;100.00;95236.03;5016977;28;20851;-80
2023/06/04 07:40:21;;;;;;;8.30;7.50;;;;;;;18.43;100.00;95233.72;5052169;28;20443;-81
2023/06/04 07:42:48;;;;;;;9.53;8.53;;;;;;;18.38;100.00;95232.56;5051864;28;20930;-81
2023/06/04 07:45:15;;;;;;;10.80;7.63;;;;;;;18.45;100.00;95234.38;5052035;28;20450;-81
2023/06/04 07:47:43;;;;;;;12.20;8.83;;;;;;;18.61;100.00;95238.81;5051586;28;20479;-81
2023/06/04 07:50:10;;;;;;;8.53;7.70;;;;;;;18.61;100.00;95238.00;5016823;28;20502;-81
2023/06/04 07:52:38;;;;;;;9.37;8.00;;;;;;;18.65;100.00;95236.69;5051928;28;20503;-81
2023/06/04 07:55:06;;;;;;;11.67;8.57;;;;;;;18.69;100.00;95243.31;5052145;28;20493;-81
2023/06/04 07:57:33;;;;;;;7.73;7.00;;;;;;;18.68;100.00;95244.31;5051792;28;20437;-80
2023/06/04 08:00:03;;;;;;;9.23;7.87;;;;;;;18.68;100.00;95244.31;5051757;28;20448;-81
2023/06/04 08:02:30;;;;;;;10.10;8.73;;;;;;;18.74;100.00;95240.97;5052451;28;20450;-81
2023/06/04 08:04:57;;;;;;;8.83;8.03;;;;;;;18.76;100.00;95244.28;5051854;28;20446;-79
2023/06/04 08:07:24;;;;;;;12.47;8.10;;;;;;;18.64;100.00;95250.97;5052131;28;20477;-80
2023/06/04 08:09:52;;;;;;;9.97;8.87;;;;;;;18.63;100.00;95255.47;5051859;28;20792;-80
2023/06/04 08:12:19;;;;;;;9.77;8.60;;;;;;;18.67;100.00;95242.66;5051807;28;20441;-80
2023/06/04 08:14:46;;;;;;;9.20;7.63;;;;;;;18.70;100.00;95245.78;5051610;28;20955;-79
2023/06/04 08:17:13;;;;;;;11.80;9.47;;;;;;;18.81;100.00;95248.09;5051691;28;20464;-80
2023/06/04 08:19:39;;;;;;;17.13;9.90;;;;;;;18.82;100.00;95243.63;5051673;28;20460;-80
2023/06/04 08:22:06;;;;;;;11.47;10.23;;;;;;;18.89;100.00;95249.91;5052481;28;20858;-80
2023/06/04 08:24:33;;;;;;;12.23;9.47;;;;;;;18.91;100.00;95255.88;5051569;28;20937;-80
2023/06/04 08:27:01;;;;;;;14.47;10.77;;;;;;;18.95;100.00;95238.56;5051528;28;20453;-82
2023/06/04 08:29:28;;;;;;;12.37;8.60;;;;;;;18.88;100.00;95251.72;5051567;28;20570;-80
2023/06/04 08:31:55;;;;;;;10.97;9.60;;;;;;;18.90;100.00;95248.06;5052038;28;20499;-82
2023/06/04 08:34:22;;;;;;;13.50;8.90;;;;;;;18.86;100.00;95247.59;5051724;28;20446;-80
2023/06/04 08:36:48;;;;;;;10.63;9.60;;;;;;;18.93;100.00;95253.03;5051811;28;20505;-80
2023/06/04 08:39:15;;;;;;;28.37;9.70;;;;;;;19.02;100.00;95255.47;5051465;28;20442;-82
2023/06/04 08:41:45;;;;;;;10.30;8.13;;;;;;;19.16;100.00;95257.44;5051508;28;20459;-80
2023/06/04 08:44:13;;;;;;;11.30;9.90;;;;;;;19.36;100.00;95259.63;5051811;28;20522;-80
2023/06/04 08:46:40;;;;;;;12.23;8.83;;;;;;;19.50;100.00;95272.22;5032803;28;20438;-79
2023/06/04 08:49:08;;;;;;;10.57;9.17;;;;;;;19.42;96.36;95272.28;5051655;28;20536;-80
2023/06/04 08:51:37;;;;;;;10.83;7.73;;;;;;;19.41;96.41;95282.09;5032852;28;20491;-80
2023/06/04 08:54:05;;;;;;;12.20;9.80;;;;;;;19.53;98.00;95277.22;5051362;28;20441;-81
2023/06/04 08:56:32;;;;;;;8.33;7.50;;;;;;;19.31;94.23;95284.13;5051255;28;20484;-80
2023/06/04 08:59:03;;;;;;;10.73;7.07;;;;;;;19.10;95.86;95291.88;5051341;28;20531;-80
2023/06/04 09:01:32;;;;;;;12.77;6.97;;;;;;;19.31;96.32;95294.75;5054309;28;20459;-81
2023/06/04 09:04:02;;;;;;;11.70;8.53;;;;;;;19.31;98.23;95281.44;5019757;28;20531;-80
2023/06/04 09:06:30;;;;;;;7.97;7.17;;;;;;;19.28;94.97;95283.63;5055016;28;20448;-81
2023/06/04 09:08:59;;;;;;;12.37;8.23;;;;;;;19.23;96.04;95288.66;5055557;28;20467;-80
2023/06/04 09:11:28;;;;;;;9.03;8.03;;;;;;;19.45;96.17;95291.38;5055565;28;20525;-80
2023/06/04 09:14:01;;;;;;;9.73;8.73;;;;;;;19.66;95.75;95287.28;5055135;28;20524;-80
2023/06/04 09:16:35;;;;;;;11.37;7.70;;;;;;;19.68;94.38;95288.78;5054517;28;20576;-81
2023/06/04 09:19:04;;;;;;;13.20;8.53;;;;;;;19.85;92.96;95296.66;5056305;28;20530;-81
2023/06/04 09:21:30;;;;;;;15.83;7.77;;;;;;;19.88;92.21;95302.44;5055012;28;20474;-80
2023/06/04 09:23:59;;;;;;;8.87;7.97;;;;;;;19.87;90.34;95298.13;5055163;28;20472;-80
2023/06/04 09:26:26;;;;;;;11.50;8.97;;;;;;;19.82;89.86;95303.16;5055040;28;20447;-81
2023/06/04 09:28:57;;;;;;;9.40;8.43;;;;;;;19.78;91.56;95292.03;5055174;28;20460;-80
2023/06/04 09:31:26;;;;;;;12.10;8.63;;;;;;;19.82;90.42;95294.34;5054977;28;20452;-80
2023/06/04 09:33:53;;;;;;;14.37;10.10;;;;;;;19.99;90.10;95293.22;5054947;28;20535;-81
2023/06/04 09:36:21;;;;;;;11.07;9.70;;;;;;;20.17;89.74;95295.56;5054578;28;20980;-80
2023/06/04 09:38:48;;;;;;;11.00;8.20;;;;;;;20.26;89.29;95295.34;5054543;28;20444;-80
2023/06/04 09:41:19;;;;;;;11.97;9.03;;;;;;;20.56;89.58;95298.13;5020030;28;20533;-80
2023/06/04 09:43:46;;;;;;;8.03;7.33;;;;;;;20.45;89.55;95298.53;5054773;28;20532;-81
2023/06/04 09:46:14;;;;;;;11.83;9.07;;;;;;;20.40;89.44;95291.91;5054840;28;20490;-80
2023/06/04 09:48:43;;;;;;;8.07;7.37;;;;;;;20.13;88.31;95297.78;5055028;28;20448;-81
2023/06/04 09:51:11;;;;;;;9.97;8.97;;;;;;;20.35;88.90;95296.94;5054354;28;20447;-80
2023/06/04 09:53:40;;;;;;;15.13;9.90;;;;;;;20.23;88.41;95292.19;5054220;28;21014;-80
2023/06/04 09:56:10;;;;;;;10.00;8.10;;;;;;;20.19;88.17;95293.56;5054582;28;20514;-80
2023/06/04 09:58:39;;;;;;;11.67;9.33;;;;;;;20.27;88.55;95296.19;5054021;28;20452;-81
2023/06/04 10:01:07;;;;;;;11.27;7.70;;;;;;;20.52;89.15;95289.63;5020192;28;20539;-80
2023/06/04 10:03:35;;;;;;;8.33;7.60;;;;;;;20.38;87.38;95288.56;5053885;28;20793;-81
2023/06/04 10:06:03;;;;;;;8.73;7.97;;;;;;;20.53;88.29;95285.13;5054118;28;20454;-80
2023/06/04 10:08:32;;;;;;;9.83;8.83;;;;;;;20.73;86.11;95272.91;5053820;28;20440;-80
2023/06/04 10:11:02;;;;;;;14.00;8.00;;;;;;;20.93;90.01;95275.88;5053280;28;20453;-81
2023/06/04 10:13:31;;;;;;;9.57;8.53;;;;;;;21.31;88.30;95273.94;5053627;28;20488;-80
2023/06/04 10:15:59;;;;;;;9.13;8.23;;;;;;;21.50;84.47;95273.34;5053755;28;20492;-81
2023/06/04 10:18:28;;;;;;;14.10;8.80;;;;;;;21.50;84.17;95281.38;5053653;28;20455;-82
2023/06/04 10:20:56;;;;;;;11.60;8.87;;;;;;;21.43;85.51;95272.47;5054583;28;20860;-82
2023/06/04 10:23:24;;;;;;;9.70;7.90;;;;;;;21.46;85.34;95268.59;5057194;28;20451;-81
2023/06/04 10:25:53;;;;;;;11.10;9.10;;;;;;;21.64;84.74;95271.66;5053063;28;20467;-81
2023/06/04 10:28:23;;;;;;;8.50;7.50;;;;;;;21.62;84.16;95277.19;5035058;28;20940;-81
2023/06/04 10:30:51;;;;;;;10.03;7.77;;;;;;;21.50;83.59;95288.56;5034545;28;20447;-80
2023/06/04 10:33:24;;;;;;;12.67;8.17;;;;;;;21.46;84.51;95279.28;5053332;28;20530;-81
2023/06/04 10:35:51;;;;;;;9.63;8.63;;;;;;;21.36;85.91;95271.53;5019912;28;20507;-81
2023/06/04 10:38:18;;;;;;;9.43;8.63;;;;;;;21.35;85.15;95280.56;5053477;28;20449;-80
2023/06/04 10:40:45;;;;;;;10.90;9.33;;;;;;;20.93;86.29;95265.22;5053429;28;20527;-81
2023/06/04 10:43:15;;;;;;;11.93;9.60;;;;;;;20.95;86.73;95274.69;5053045;28;20495;-81
2023/06/04 10:45:44;;;;;;;9.90;8.90;;;;;;;20.79;86.77;95272.19;5052966;28;20452;-81
2023/06/04 10:48:13;;;;;;;11.80;9.53;;;;;;;20.67;88.17;95271.00;5053410;28;20439;-81
2023/06/04 10:50:49;;;;;;;11.37;10.27;;;;;;;20.63;89.18;95265.19;5053288;28;20454;-81
2023/06/04 10:53:17;;;;;;;16.23;10.07;;;;;;;20.69;90.08;95272.47;5052512;28;20450;-80
2023/06/04 10:55:45;;;;;;;11.53;10.43;;;;;;;20.57;88.45;95268.59;5052408;28;20813;-81
2023/06/04 10:58:12;;;;;;;10.97;10.07;;;;;;;20.80;89.42;95265.84;5052177;28;20452;-80
2023/06/04 11:00:47;;;;;;;12.10;10.13;;;;;;;21.00;90.27;95266.13;5052207;28;20541;-80
2023/06/04 11:03:14;;;;;;;11.30;10.30;;;;;;;21.02;89.21;95259.59;5018365;28;20452;-80
2023/06/04 11:05:43;;;;;;;11.97;9.70;;;;;;;20.91;88.08;95260.06;5017288;28;20444;-81
2023/06/04 11:08:13;;;;;;;13.80;10.83;;;;;;;20.92;87.26;95261.72;5052255;28;20964;-81
2023/06/04 11:10:45;;;;;;;11.00;10.00;;;;;;;20.92;88.34;95263.56;5052344;28;20530;-81
2023/06/04 11:13:12;;;;;;;10.83;9.83;;;;;;;20.89;87.87;95255.94;5033629;28;20501;-81
2023/06/04 11:15:41;;;;;;;11.23;10.13;;;;;;;20.75;88.39;95260.22;5052093;28;20443;-80
2023/06/04 11:18:10;;;;;;;11.47;9.47;;;;;;;20.72;87.86;95263.25;5052593;28;20459;-81
2023/06/04 11:20:36;;;;;;;12.07;10.97;;;;;;;20.61;86.94;95266.41;5052607;28;20446;-81
2023/06/04 11:23:04;;;;;;;12.00;10.80;;;;;;;20.69;88.48;95258.31;5051570;28;20474;-81